Time;durP1;ratioP1;P1;durP2;ratioP2;P2;SDS_P1;SDS_P2;PMS_P1;PMS_P2;Temp;Humidity;BMP_temperature;BMP_pressure;BME280_temperature;BME280_humidity;BME280_pressure;Samples;Min_cycle;Max_cycle;Signal;HPM_P1;HPM_P2
2021/04/19 00:02:25;;;;;;;12.70;8.23;;;10.40;99.90;;;;;;5053247;28;20190;-63
2021/04/19 00:04:51;;;;;;;9.60;7.97;;;10.40;99.90;;;;;;5053351;28;20600;-64
2021/04/19 00:07:17;;;;;;;14.30;9.03;;;10.40;99.90;;;;;;5053095;28;20174;-64
2021/04/19 00:09:44;;;;;;;12.33;8.80;;;10.40;99.90;;;;;;5052908;28;20238;-64
2021/04/19 00:12:10;;;;;;;10.20;8.20;;;10.30;99.90;;;;;;5052894;28;20837;-64
2021/04/19 00:14:36;;;;;;;16.20;8.60;;;10.30;99.90;;;;;;5053152;28;20170;-64
2021/04/19 00:17:02;;;;;;;12.20;8.10;;;10.30;99.90;;;;;;5052836;28;20244;-64
2021/04/19 00:19:28;;;;;;;11.70;8.10;;;10.30;99.90;;;;;;5052867;28;20285;-64
2021/04/19 00:21:54;;;;;;;13.03;8.10;;;10.30;99.90;;;;;;5052213;28;20266;-64
2021/04/19 00:24:20;;;;;;;12.67;8.63;;;10.30;99.90;;;;;;5053029;28;20181;-66
2021/04/19 00:26:46;;;;;;;13.30;8.17;;;10.20;99.90;;;;;;5052652;28;20183;-64
2021/04/19 00:29:11;;;;;;;11.37;8.50;;;10.20;99.90;;;;;;5052832;28;20632;-66
2021/04/19 00:31:37;;;;;;;11.97;8.70;;;10.30;99.90;;;;;;5052134;28;20191;-66
2021/04/19 00:34:03;;;;;;;12.57;7.83;;;10.20;99.90;;;;;;5052344;28;20727;-66
2021/04/19 00:36:30;;;;;;;17.53;8.50;;;10.20;99.90;;;;;;5052012;28;20216;-66
2021/04/19 00:38:56;;;;;;;13.80;8.67;;;10.10;99.90;;;;;;5052228;28;20210;-66
2021/04/19 00:41:22;;;;;;;15.23;8.77;;;10.10;99.90;;;;;;5052154;28;20332;-66
2021/04/19 00:43:47;;;;;;;15.00;8.57;;;10.00;99.90;;;;;;5052249;28;20190;-66
2021/04/19 00:46:13;;;;;;;17.07;8.40;;;10.00;99.90;;;;;;5052501;28;20202;-65
2021/04/19 00:48:39;;;;;;;12.77;8.80;;;10.00;99.90;;;;;;5052204;28;20167;-66
2021/04/19 00:51:06;;;;;;;10.93;8.27;;;10.00;99.90;;;;;;5052096;28;20687;-66
2021/04/19 00:53:32;;;;;;;11.87;8.63;;;9.90;99.90;;;;;;5052353;28;20260;-65
2021/04/19 00:55:58;;;;;;;18.07;8.00;;;9.90;99.90;;;;;;5052174;28;20588;-66
2021/04/19 00:58:31;;;;;;;12.07;8.83;;;9.80;99.90;;;;;;5052284;28;20178;-65
2021/04/19 01:00:56;;;;;;;12.43;8.03;;;9.80;99.90;;;;;;5051630;28;20203;-65
2021/04/19 01:03:23;;;;;;;12.87;8.30;;;9.70;99.90;;;;;;5052085;28;20186;-66
2021/04/19 01:05:49;;;;;;;10.90;8.20;;;9.70;99.90;;;;;;5052133;28;20175;-66
2021/04/19 01:08:15;;;;;;;11.23;7.57;;;9.70;99.90;;;;;;5051908;28;20279;-66
2021/04/19 01:10:41;;;;;;;9.97;7.50;;;9.70;99.90;;;;;;5051764;28;20609;-64
2021/04/19 01:13:06;;;;;;;11.00;7.60;;;9.60;99.90;;;;;;5051804;28;20189;-64
2021/04/19 01:15:33;;;;;;;12.57;8.03;;;9.50;99.90;;;;;;5052201;28;20198;-63
2021/04/19 01:17:59;;;;;;;10.50;7.77;;;9.60;99.90;;;;;;5051438;28;20658;-64
2021/04/19 01:20:28;;;;;;;10.63;7.60;;;9.60;99.90;;;;;;5051368;28;20302;-64
2021/04/19 01:22:54;;;;;;;11.47;7.20;;;9.50;99.90;;;;;;5051396;28;20182;-66
2021/04/19 01:25:38;;;;;;;10.67;8.03;;;9.60;99.90;;;;;;5051857;28;20166;-66
2021/04/19 01:28:04;;;;;;;8.70;6.67;;;9.60;99.90;;;;;;5051328;28;20205;-66
2021/04/19 01:30:34;;;;;;;7.50;6.67;;;9.60;99.90;;;;;;5051237;28;20198;-65
2021/04/19 01:33:00;;;;;;;9.00;6.67;;;9.50;99.90;;;;;;5051809;28;20186;-63
2021/04/19 01:35:26;;;;;;;8.47;6.40;;;9.50;99.90;;;;;;5051532;28;20232;-63
2021/04/19 01:37:52;;;;;;;10.43;7.93;;;9.50;99.90;;;;;;5051524;28;20179;-64
2021/04/19 01:40:18;;;;;;;12.40;7.60;;;9.50;99.90;;;;;;5049787;28;20213;-63
2021/04/19 01:42:45;;;;;;;12.53;7.10;;;9.40;99.90;;;;;;5051707;28;20174;-66
2021/04/19 01:45:11;;;;;;;8.73;6.20;;;9.40;99.90;;;;;;5051526;28;20181;-63
2021/04/19 01:47:37;;;;;;;7.30;6.53;;;9.40;99.90;;;;;;5051402;28;20170;-64
2021/04/19 01:50:11;;;;;;;9.57;6.20;;;9.30;99.90;;;;;;5050754;28;20555;-63
2021/04/19 01:52:37;;;;;;;8.83;6.70;;;9.30;99.90;;;;;;5051533;28;20174;-63
2021/04/19 01:55:09;;;;;;;9.60;6.63;;;9.30;99.90;;;;;;5051074;28;20178;-63
2021/04/19 01:57:38;;;;;;;10.73;6.73;;;9.30;99.90;;;;;;5051252;28;20202;-65
2021/04/19 02:00:07;;;;;;;10.43;6.50;;;9.30;99.90;;;;;;5051000;28;20202;-66
2021/04/19 02:02:44;;;;;;;9.40;6.57;;;9.20;99.90;;;;;;5051248;28;20171;-64
2021/04/19 02:05:30;;;;;;;8.03;6.63;;;9.20;99.90;;;;;;5031744;28;20649;-63
2021/04/19 02:08:22;;;;;;;8.53;6.57;;;9.30;99.90;;;;;;5033490;28;20195;-64
2021/04/19 02:11:10;;;;;;;9.03;6.13;;;9.20;99.90;;;;;;5027620;28;20214;-63
2021/04/19 02:13:41;;;;;;;8.73;6.57;;;9.20;99.90;;;;;;5051237;28;20587;-64
2021/04/19 02:16:30;;;;;;;10.10;6.57;;;9.20;99.90;;;;;;5051210;28;20873;-64
2021/04/19 02:19:02;;;;;;;11.20;7.37;;;9.30;99.90;;;;;;5051033;28;20568;-63
2021/04/19 02:21:39;;;;;;;7.93;6.57;;;9.30;99.90;;;;;;5050856;28;20199;-63
2021/04/19 02:24:09;;;;;;;10.70;7.00;;;9.30;99.90;;;;;;5050755;28;20555;-64
2021/04/19 02:26:41;;;;;;;9.90;7.20;;;9.30;99.90;;;;;;5051381;28;20186;-64
2021/04/19 02:29:17;;;;;;;10.07;6.93;;;9.30;99.90;;;;;;5050986;28;20272;-64
2021/04/19 02:31:48;;;;;;;9.07;5.87;;;9.30;99.90;;;;;;5050943;28;20663;-64
2021/04/19 02:34:16;;;;;;;11.53;7.23;;;9.20;99.90;;;;;;5050893;28;20671;-64
2021/04/19 02:36:45;;;;;;;7.57;6.37;;;9.20;99.90;;;;;;5051180;28;20174;-63
2021/04/19 02:39:12;;;;;;;8.80;6.70;;;9.30;99.90;;;;;;5050784;28;20559;-64
2021/04/19 02:41:40;;;;;;;13.23;8.97;;;9.20;99.90;;;;;;5050737;28;20217;-64
2021/04/19 02:44:09;;;;;;;7.03;5.80;;;9.20;99.90;;;;;;5050615;28;20605;-64
2021/04/19 02:46:36;;;;;;;9.37;6.93;;;9.20;99.90;;;;;;5051347;28;20171;-64
2021/04/19 02:49:02;;;;;;;9.10;6.37;;;9.20;99.90;;;;;;5050695;28;20268;-64
2021/04/19 02:51:28;;;;;;;15.37;7.47;;;9.20;99.90;;;;;;5050381;28;20202;-64
2021/04/19 02:53:54;;;;;;;9.23;6.90;;;9.20;99.90;;;;;;5050897;28;20167;-64
2021/04/19 02:56:21;;;;;;;11.37;7.13;;;9.20;99.90;;;;;;5051045;28;20229;-64
2021/04/19 02:58:58;;;;;;;9.77;7.10;;;9.20;99.90;;;;;;5051178;28;20202;-64
2021/04/19 03:01:30;;;;;;;8.00;6.47;;;9.20;99.90;;;;;;5054242;28;20254;-64
2021/04/19 03:03:59;;;;;;;11.77;7.30;;;9.10;99.90;;;;;;5054084;28;20175;-64
2021/04/19 03:06:26;;;;;;;10.30;6.97;;;9.10;99.90;;;;;;5054329;28;20210;-63
2021/04/19 03:08:54;;;;;;;11.53;7.13;;;9.00;99.90;;;;;;5054514;28;20534;-64
2021/04/19 03:11:26;;;;;;;11.07;7.17;;;9.10;99.90;;;;;;5053744;28;20286;-64
2021/04/19 03:13:53;;;;;;;9.53;6.87;;;9.00;99.90;;;;;;5054157;28;20725;-64
2021/04/19 03:16:24;;;;;;;8.73;6.90;;;8.90;99.90;;;;;;5054105;28;20248;-63
2021/04/19 03:18:52;;;;;;;8.87;6.43;;;8.90;99.90;;;;;;5054117;28;20236;-64
2021/04/19 03:21:23;;;;;;;10.60;6.67;;;9.00;99.90;;;;;;5061539;22;20229;-69
2021/04/19 03:23:55;;;;;;;9.27;6.87;;;9.00;99.90;;;;;;5041782;28;20171;-67
2021/04/19 03:26:23;;;;;;;8.63;6.73;;;9.00;99.90;;;;;;5054321;28;20175;-68
2021/04/19 03:28:51;;;;;;;10.10;7.13;;;8.90;99.90;;;;;;5062113;28;20182;-71
2021/04/19 03:31:22;;;;;;;8.77;6.40;;;9.00;99.90;;;;;;5047349;28;20669;-67
2021/04/19 03:33:51;;;;;;;9.77;6.47;;;9.00;99.90;;;;;;5040505;28;20230;-67
2021/04/19 03:36:20;;;;;;;9.43;6.33;;;9.00;99.90;;;;;;5041388;28;20327;-69
2021/04/19 03:38:47;;;;;;;13.43;7.33;;;8.90;99.90;;;;;;5041287;28;20269;-69
2021/04/19 03:41:15;;;;;;;9.87;6.50;;;8.90;99.90;;;;;;5041073;28;20192;-70
2021/04/19 03:43:46;;;;;;;9.30;6.27;;;8.80;99.90;;;;;;5041672;28;20172;-68
2021/04/19 03:46:15;;;;;;;12.60;6.70;;;8.80;99.90;;;;;;5021904;28;20168;-69
2021/04/19 03:48:43;;;;;;;9.57;6.83;;;8.80;99.90;;;;;;5028269;28;20172;-61
2021/04/19 03:51:11;;;;;;;11.87;7.40;;;8.70;99.90;;;;;;5033150;28;20223;-63
2021/04/19 03:53:38;;;;;;;8.67;6.70;;;8.60;99.90;;;;;;5033404;28;20261;-63
2021/04/19 03:56:05;;;;;;;11.73;7.10;;;8.60;99.90;;;;;;5033418;28;20595;-63
2021/04/19 03:58:32;;;;;;;13.87;6.80;;;8.60;99.90;;;;;;5033137;28;20180;-63
2021/04/19 04:01:02;;;;;;;10.47;6.27;;;8.60;99.90;;;;;;5033056;28;20187;-63
2021/04/19 04:03:28;;;;;;;9.17;6.43;;;8.60;99.90;;;;;;5033234;28;20230;-63
2021/04/19 04:05:56;;;;;;;11.17;7.53;;;8.60;99.90;;;;;;5032425;28;20206;-63
2021/04/19 04:08:24;;;;;;;9.00;7.10;;;8.50;99.90;;;;;;5033132;28;20176;-64
2021/04/19 04:10:50;;;;;;;8.30;6.17;;;8.50;99.90;;;;;;5032949;28;20249;-64
2021/04/19 04:13:18;;;;;;;9.20;6.93;;;8.40;99.90;;;;;;5032972;28;20183;-63
2021/04/19 04:15:56;;;;;;;13.83;7.83;;;8.30;99.90;;;;;;5033367;28;20202;-64
2021/04/19 04:18:22;;;;;;;13.73;7.87;;;8.30;99.90;;;;;;5031687;28;20667;-63
2021/04/19 04:20:48;;;;;;;14.30;8.67;;;8.30;99.90;;;;;;5032575;28;20215;-63
2021/04/19 04:23:16;;;;;;;12.03;8.67;;;8.30;99.90;;;;;;5032848;28;20175;-63
2021/04/19 04:25:41;;;;;;;11.20;8.67;;;8.30;99.90;;;;;;5033100;28;20254;-63
2021/04/19 04:28:07;;;;;;;11.20;8.97;;;8.20;99.90;;;;;;5032700;28;20233;-63
2021/04/19 04:30:36;;;;;;;15.40;9.60;;;8.20;99.90;;;;;;5032949;28;20198;-63
2021/04/19 04:33:04;;;;;;;14.57;9.43;;;8.20;99.90;;;;;;5031597;28;20187;-64
2021/04/19 04:35:30;;;;;;;18.67;10.00;;;8.20;99.90;;;;;;5032474;28;20730;-63
2021/04/19 04:37:57;;;;;;;13.20;10.03;;;8.20;99.90;;;;;;5032708;28;20183;-64
2021/04/19 04:40:29;;;;;;;21.97;10.97;;;8.20;99.90;;;;;;5032100;28;20203;-64
2021/04/19 04:43:06;;;;;;;19.63;12.07;;;8.30;99.90;;;;;;5032451;28;20585;-64
2021/04/19 04:45:34;;;;;;;23.13;13.53;;;8.30;99.90;;;;;;5032756;28;20171;-63
2021/04/19 04:48:11;;;;;;;22.63;13.47;;;8.30;99.90;;;;;;5032308;28;20172;-63
2021/04/19 04:51:03;;;;;;;20.73;12.80;;;8.30;99.90;;;;;;5032301;28;20253;-64
2021/04/19 04:53:42;;;;;;;25.70;14.27;;;8.30;99.90;;;;;;5032249;28;20266;-63
2021/04/19 04:56:11;;;;;;;20.77;13.77;;;8.20;99.90;;;;;;5032117;28;20238;-64
2021/04/19 04:58:38;;;;;;;19.37;13.90;;;8.20;99.90;;;;;;5032338;28;20172;-63
2021/04/19 05:01:07;;;;;;;21.33;14.17;;;8.20;99.90;;;;;;5031373;28;20600;-63
2021/04/19 05:03:34;;;;;;;22.53;14.87;;;8.20;99.90;;;;;;5031785;28;20174;-63
2021/04/19 05:06:01;;;;;;;25.40;13.27;;;8.20;99.90;;;;;;5031701;28;20167;-63
2021/04/19 05:08:27;;;;;;;22.50;14.03;;;8.20;99.90;;;;;;5031069;28;20192;-63
2021/04/19 05:10:56;;;;;;;22.77;14.87;;;8.10;99.90;;;;;;5031610;28;20210;-63
2021/04/19 05:13:22;;;;;;;23.47;15.70;;;8.00;99.90;;;;;;5032234;28;20266;-63
2021/04/19 05:15:49;;;;;;;30.03;16.63;;;8.10;99.90;;;;;;5031967;28;20211;-63
2021/04/19 05:18:16;;;;;;;21.57;15.20;;;8.00;99.90;;;;;;5031998;28;20549;-63
2021/04/19 05:20:42;;;;;;;19.83;15.37;;;8.00;99.90;;;;;;5031317;28;20210;-63
2021/04/19 05:23:12;;;;;;;26.10;17.33;;;7.90;99.90;;;;;;5031608;28;20171;-63
2021/04/19 05:25:38;;;;;;;23.53;16.93;;;7.90;99.90;;;;;;5031790;28;20217;-64
2021/04/19 05:28:05;;;;;;;25.33;17.50;;;7.90;99.90;;;;;;5031799;28;20211;-64
2021/04/19 05:30:31;;;;;;;27.03;17.63;;;7.80;99.90;;;;;;5031297;28;20199;-64
2021/04/19 05:32:58;;;;;;;26.33;17.37;;;7.80;99.90;;;;;;5031887;28;20183;-63
2021/04/19 05:35:25;;;;;;;28.30;17.87;;;7.80;99.90;;;;;;5031634;28;20205;-64
2021/04/19 05:37:52;;;;;;;28.17;18.50;;;7.70;99.90;;;;;;5031585;28;20179;-64
2021/04/19 05:40:20;;;;;;;26.23;19.03;;;7.80;99.90;;;;;;5031167;28;20215;-64
2021/04/19 05:42:46;;;;;;;28.63;19.43;;;7.80;99.90;;;;;;5031560;28;20229;-64
2021/04/19 05:45:15;;;;;;;35.17;20.97;;;7.80;99.90;;;;;;5030367;28;20222;-64
2021/04/19 05:47:44;;;;;;;29.43;20.80;;;7.90;99.90;;;;;;5031510;28;20183;-65
2021/04/19 05:50:10;;;;;;;32.00;19.43;;;7.90;99.90;;;;;;5032269;28;20183;-64
2021/04/19 05:52:36;;;;;;;30.77;20.73;;;7.90;99.90;;;;;;5031620;28;20171;-65
2021/04/19 05:55:02;;;;;;;30.73;20.40;;;7.80;99.90;;;;;;5011916;28;20180;-65
2021/04/19 05:58:05;;;;;;;35.67;22.10;;;7.80;99.90;;;;;;5011892;28;20179;-65
2021/04/19 06:00:43;;;;;;;29.03;20.07;;;7.80;99.90;;;;;;5011415;28;20300;-65
2021/04/19 06:03:15;;;;;;;30.73;20.87;;;7.70;99.90;;;;;;5015461;28;20263;-65
2021/04/19 06:06:15;;;;;;;34.77;21.37;;;7.70;99.90;;;;;;5031316;28;20171;-65
2021/04/19 06:09:05;;;;;;;30.30;21.67;;;7.70;99.90;;;;;;5031650;28;20211;-66
2021/04/19 06:11:46;;;;;;;36.67;23.73;;;7.80;99.90;;;;;;5030822;28;20199;-65
2021/04/19 06:14:16;;;;;;;32.10;24.20;;;7.90;99.90;;;;;;5031229;28;20186;-65
2021/04/19 06:16:42;;;;;;;39.57;23.37;;;8.00;99.90;;;;;;5031297;28;20210;-66
2021/04/19 06:19:15;;;;;;;38.83;23.50;;;7.90;99.90;;;;;;5031336;28;20195;-66
2021/04/19 06:21:41;;;;;;;35.07;23.97;;;8.00;99.90;;;;;;5027735;28;20341;-65
2021/04/19 06:24:07;;;;;;;40.57;24.87;;;8.00;99.90;;;;;;5031136;28;20203;-65
2021/04/19 06:26:34;;;;;;;52.50;33.87;;;8.10;99.90;;;;;;5030773;28;20175;-65
2021/04/19 06:29:00;;;;;;;52.23;34.90;;;8.10;99.90;;;;;;5030926;28;20172;-65
2021/04/19 06:31:26;;;;;;;53.40;33.87;;;8.10;99.90;;;;;;5030717;28;20207;-65
2021/04/19 06:34:04;;;;;;;55.23;34.47;;;8.00;99.90;;;;;;5031525;28;20183;-65
2021/04/19 06:36:31;;;;;;;59.23;37.10;;;8.00;99.90;;;;;;5035099;28;20202;-65
2021/04/19 06:38:57;;;;;;;52.00;35.97;;;8.00;99.90;;;;;;5034555;28;20198;-65
2021/04/19 06:41:23;;;;;;;55.60;34.83;;;8.00;99.90;;;;;;5034511;28;20187;-65
2021/04/19 06:43:49;;;;;;;61.10;38.60;;;8.10;99.90;;;;;;5034599;28;20159;-65
2021/04/19 06:46:15;;;;;;;55.60;36.17;;;8.10;99.90;;;;;;5034592;28;20179;-65
2021/04/19 06:48:42;;;;;;;54.53;36.60;;;8.00;99.90;;;;;;5035069;28;20584;-65
2021/04/19 06:51:11;;;;;;;57.17;38.17;;;7.90;99.90;;;;;;5034040;28;20203;-65
2021/04/19 06:53:37;;;;;;;59.77;36.77;;;7.90;99.90;;;;;;5034388;28;20167;-65
2021/04/19 06:56:05;;;;;;;60.87;40.53;;;7.90;99.90;;;;;;5034342;28;20207;-65
2021/04/19 06:58:33;;;;;;;61.43;39.27;;;7.90;99.90;;;;;;5034659;28;20652;-65
2021/04/19 07:00:59;;;;;;;63.93;39.63;;;7.90;99.90;;;;;;5033819;28;20199;-65
2021/04/19 07:03:28;;;;;;;56.50;35.83;;;7.90;99.90;;;;;;5034329;28;20728;-65
2021/04/19 07:05:54;;;;;;;63.73;37.90;;;7.90;99.90;;;;;;5034452;28;20637;-65
2021/04/19 07:08:29;;;;;;;70.83;41.73;;;7.80;99.90;;;;;;5034063;28;20207;-65
2021/04/19 07:11:05;;;;;;;52.97;34.87;;;7.70;99.90;;;;;;5034043;28;20191;-65
2021/04/19 07:13:31;;;;;;;60.47;41.83;;;7.70;99.90;;;;;;5034130;28;20187;-65
2021/04/19 07:15:58;;;;;;;68.90;42.03;;;7.60;99.90;;;;;;5034127;28;20170;-65
2021/04/19 07:18:24;;;;;;;50.17;34.43;;;7.60;99.90;;;;;;5034043;28;20190;-65
2021/04/19 07:20:50;;;;;;;68.90;39.53;;;7.60;99.90;;;;;;5032179;28;20246;-65
2021/04/19 07:23:16;;;;;;;40.97;28.70;;;7.60;99.90;;;;;;5034191;28;20196;-65
2021/04/19 07:25:46;;;;;;;57.80;36.27;;;7.50;99.90;;;;;;5034038;28;20183;-65
2021/04/19 07:28:13;;;;;;;65.90;39.97;;;7.40;99.90;;;;;;5033891;28;20167;-65
2021/04/19 07:30:39;;;;;;;66.30;39.97;;;7.50;99.90;;;;;;5033420;28;20639;-65
2021/04/19 07:33:05;;;;;;;64.97;41.63;;;7.50;99.90;;;;;;5033974;28;20198;-65
2021/04/19 07:35:33;;;;;;;71.67;42.10;;;7.60;99.90;;;;;;5033637;28;20237;-65
2021/04/19 07:38:04;;;;;;;60.87;41.03;;;7.60;99.90;;;;;;5033780;28;20217;-65
2021/04/19 07:40:34;;;;;;;60.47;37.03;;;7.60;99.90;;;;;;5033169;28;20195;-65
2021/04/19 07:43:18;;;;;;;73.53;40.23;;;7.60;99.90;;;;;;5033816;28;20179;-65
2021/04/19 07:46:02;;;;;;;59.03;37.47;;;7.50;99.90;;;;;;5033072;28;20175;-64
2021/04/19 07:48:32;;;;;;;69.40;41.27;;;7.60;99.90;;;;;;5033454;28;20574;-65
2021/04/19 07:50:59;;;;;;;51.10;34.13;;;7.80;99.90;;;;;;5032862;28;20203;-65
2021/04/19 07:53:25;;;;;;;58.57;37.00;;;7.80;99.90;;;;;;5033560;28;20636;-64
2021/04/19 07:55:52;;;;;;;57.00;35.03;;;7.70;99.90;;;;;;5033210;28;20179;-65
2021/04/19 07:58:24;;;;;;;65.03;39.40;;;7.70;99.90;;;;;;5033251;28;20250;-65
2021/04/19 08:00:51;;;;;;;59.67;39.30;;;7.70;99.90;;;;;;5032885;28;20207;-64
2021/04/19 08:03:20;;;;;;;65.90;39.47;;;7.70;99.90;;;;;;5033173;28;20701;-65
2021/04/19 08:05:51;;;;;;;47.80;32.50;;;7.80;99.90;;;;;;5033306;28;20183;-65
2021/04/19 08:08:34;;;;;;;58.73;36.03;;;7.90;99.90;;;;;;5032848;28;20537;-64
2021/04/19 08:11:06;;;;;;;55.07;39.17;;;7.90;99.90;;;;;;5032831;28;20192;-65
2021/04/19 08:13:32;;;;;;;57.33;39.07;;;8.10;99.90;;;;;;5032962;28;20664;-65
2021/04/19 08:16:13;;;;;;;50.47;36.67;;;8.40;99.90;;;;;;5033107;28;20180;-65
2021/04/19 08:18:39;;;;;;;50.30;37.17;;;8.50;99.90;;;;;;5032736;28;20264;-64
2021/04/19 08:21:06;;;;;;;46.33;32.27;;;8.50;99.90;;;;;;5032520;28;20215;-64
2021/04/19 08:23:38;;;;;;;42.00;27.93;;;8.40;99.90;;;;;;5032772;28;20179;-65
2021/04/19 08:26:04;;;;;;;43.33;30.20;;;8.20;99.90;;;;;;5032605;28;20171;-65
2021/04/19 08:28:30;;;;;;;46.30;33.07;;;8.20;99.90;;;;;;5032687;28;20190;-65
2021/04/19 08:30:58;;;;;;;47.70;34.30;;;8.30;99.90;;;;;;5032528;28;20198;-65
2021/04/19 08:33:24;;;;;;;48.97;31.50;;;8.40;99.90;;;;;;5032628;28;20175;-64
2021/04/19 08:35:52;;;;;;;44.70;28.60;;;8.60;99.90;;;;;;5032734;28;20179;-64
2021/04/19 08:38:21;;;;;;;39.77;26.70;;;8.70;99.90;;;;;;5032263;28;20626;-64
2021/04/19 08:40:49;;;;;;;39.13;25.73;;;8.60;99.90;;;;;;5031859;28;20772;-64
2021/04/19 08:43:21;;;;;;;47.17;29.07;;;8.60;99.90;;;;;;5032147;28;20266;-65
2021/04/19 08:45:48;;;;;;;45.13;31.07;;;8.70;99.90;;;;;;5032377;28;20167;-65
2021/04/19 08:48:14;;;;;;;37.90;27.37;;;9.10;99.90;;;;;;5032333;28;20258;-65
2021/04/19 08:50:46;;;;;;;34.77;25.67;;;9.30;99.90;;;;;;5032149;28;20195;-65
2021/04/19 08:53:14;;;;;;;35.90;25.67;;;9.40;99.90;;;;;;5032130;28;20180;-65
2021/04/19 08:55:41;;;;;;;28.57;23.27;;;9.30;99.90;;;;;;5032345;28;20183;-65
2021/04/19 08:58:13;;;;;;;33.40;24.33;;;9.40;99.90;;;;;;5031530;28;20183;-65
2021/04/19 09:00:41;;;;;;;30.80;22.97;;;9.50;99.90;;;;;;5031253;28;20207;-64
2021/04/19 09:03:08;;;;;;;33.07;23.87;;;9.60;99.90;;;;;;5032426;28;20210;-65
2021/04/19 09:05:35;;;;;;;30.13;22.10;;;9.70;99.90;;;;;;5032294;28;20214;-65
2021/04/19 09:08:21;;;;;;;29.10;20.63;;;9.70;99.90;;;;;;5032096;28;20176;-65
2021/04/19 09:10:49;;;;;;;26.83;20.33;;;9.90;99.90;;;;;;5031457;28;20688;-65
2021/04/19 09:13:24;;;;;;;27.00;20.63;;;10.20;99.90;;;;;;5028209;28;20180;-65
2021/04/19 09:15:52;;;;;;;26.93;19.77;;;10.30;99.90;;;;;;5024102;28;20175;-65
2021/04/19 09:18:20;;;;;;;25.73;20.03;;;10.40;99.90;;;;;;5031981;28;20643;-65
2021/04/19 09:20:46;;;;;;;28.70;20.83;;;10.40;99.90;;;;;;5049219;22;20215;-66
2021/04/19 09:23:21;;;;;;;24.03;19.00;;;10.70;99.90;;;;;;5011751;28;20180;-66
2021/04/19 09:25:47;;;;;;;25.70;18.13;;;10.80;99.90;;;;;;5012164;28;20180;-65
2021/04/19 09:28:13;;;;;;;23.13;18.67;;;10.70;99.90;;;;;;5011511;28;20235;-64
2021/04/19 09:30:46;;;;;;;27.57;18.23;;;10.80;99.90;;;;;;5017850;28;20695;-65
2021/04/19 09:33:12;;;;;;;25.10;17.77;;;10.90;99.90;;;;;;5031560;28;20175;-65
2021/04/19 09:35:48;;;;;;;25.97;17.93;;;11.10;99.90;;;;;;5031735;28;20701;-65
2021/04/19 09:38:26;;;;;;;26.57;19.17;;;11.10;99.90;;;;;;5031328;28;20175;-66
2021/04/19 09:40:54;;;;;;;24.27;19.53;;;11.20;99.90;;;;;;5031360;28;20575;-66
2021/04/19 09:43:47;;;;;;;23.63;17.63;;;11.40;99.90;;;;;;5029906;28;20259;-65
2021/04/19 09:46:16;;;;;;;24.43;17.17;;;11.50;99.90;;;;;;5031805;28;20168;-66
2021/04/19 09:48:46;;;;;;;25.63;18.93;;;11.70;99.90;;;;;;5032681;28;20172;-65
2021/04/19 09:51:19;;;;;;;22.27;18.33;;;11.90;99.90;;;;;;5030762;28;20233;-65
2021/04/19 09:53:57;;;;;;;22.93;17.83;;;12.10;99.90;;;;;;5031866;28;20263;-66
2021/04/19 09:56:34;;;;;;;24.93;18.40;;;12.30;99.90;;;;;;5031663;28;20167;-65
2021/04/19 09:59:01;;;;;;;24.43;18.43;;;12.80;99.90;;;;;;5029759;28;20290;-65
2021/04/19 10:01:28;;;;;;;24.53;17.90;;;13.10;99.90;;;;;;5031276;28;20199;-66
2021/04/19 10:03:56;;;;;;;26.37;18.87;;;13.30;99.90;;;;;;5031548;28;20840;-65
2021/04/19 10:06:37;;;;;;;21.63;17.13;;;13.50;99.90;;;;;;5030603;28;20233;-66
2021/04/19 10:09:06;;;;;;;23.80;17.67;;;13.80;99.90;;;;;;5034489;28;20567;-65
2021/04/19 10:11:34;;;;;;;23.97;19.00;;;13.80;99.90;;;;;;5034905;28;20219;-66
2021/04/19 10:14:08;;;;;;;23.53;16.80;;;14.00;99.90;;;;;;5035769;28;20528;-65
2021/04/19 10:16:39;;;;;;;23.63;18.87;;;14.20;99.90;;;;;;5034794;28;20178;-66
2021/04/19 10:19:05;;;;;;;22.13;18.00;;;14.40;99.90;;;;;;5035635;28;20625;-65
2021/04/19 10:21:31;;;;;;;22.53;16.33;;;14.50;99.90;;;;;;5035363;28;20297;-65
2021/04/19 10:23:59;;;;;;;21.53;18.10;;;14.80;99.90;;;;;;5035555;28;20514;-66
2021/04/19 10:26:37;;;;;;;24.40;18.30;;;15.10;99.90;;;;;;5035584;28;20194;-66
2021/04/19 10:29:14;;;;;;;21.07;17.27;;;15.30;99.90;;;;;;5035484;28;20178;-64
2021/04/19 10:32:06;;;;;;;22.40;16.70;;;15.30;99.90;;;;;;5035135;28;20187;-66
2021/04/19 10:34:33;;;;;;;22.67;16.67;;;15.30;99.90;;;;;;5033444;28;20600;-66
2021/04/19 10:37:06;;;;;;;22.53;17.10;;;15.70;99.90;;;;;;5035300;28;20236;-66
2021/04/19 10:39:33;;;;;;;22.17;18.60;;;16.70;99.90;;;;;;5035015;28;20699;-66
2021/04/19 10:42:08;;;;;;;25.80;20.17;;;17.40;99.90;;;;;;5034594;28;20684;-65
2021/04/19 10:44:42;;;;;;;21.33;18.07;;;17.90;99.90;;;;;;5035356;28;20539;-65
2021/04/19 10:47:12;;;;;;;25.77;19.90;;;18.10;99.90;;;;;;5034850;28;20570;-66
2021/04/19 10:49:40;;;;;;;21.87;18.40;;;18.20;99.90;;;;;;5035032;28;20218;-66
2021/04/19 10:52:08;;;;;;;22.60;19.37;;;18.30;99.90;;;;;;5034410;28;20230;-65
2021/04/19 10:54:39;;;;;;;22.97;16.37;;;18.50;99.90;;;;;;5034679;28;20724;-66
2021/04/19 10:57:07;;;;;;;21.97;15.37;;;18.70;99.90;;;;;;5034760;28;20172;-66
2021/04/19 10:59:33;;;;;;;21.38;17.83;;;18.60;99.90;;;;;;5034383;28;20692;-66
2021/04/19 11:02:07;;;;;;;19.57;17.50;;;18.50;99.90;;;;;;5034162;28;20196;-66
2021/04/19 11:04:34;;;;;;;21.33;18.00;;;18.70;99.90;;;;;;5034294;28;20160;-66
2021/04/19 11:07:35;;;;;;;23.77;19.33;;;18.90;99.90;;;;;;5034425;28;20175;-64
2021/04/19 11:10:16;;;;;;;22.63;18.15;;;19.00;99.90;;;;;;4992250;28;20196;-66
2021/04/19 11:12:54;;;;;;;22.23;18.33;;;19.70;99.90;;;;;;5030023;28;20202;-65
2021/04/19 11:15:26;;;;;;;20.45;17.10;;;20.70;99.90;;;;;;5034334;28;20650;-66
2021/04/19 11:17:51;;;;;;;19.40;16.73;;;21.70;99.90;;;;;;5033558;28;20183;-66
2021/04/19 11:20:27;;;;;;;16.83;14.68;;;22.50;99.90;;;;;;5032816;28;20268;-66
2021/04/19 11:22:53;;;;;;;20.33;18.17;;;22.80;99.90;;;;;;5033748;28;20175;-66
2021/04/19 11:25:24;;;;;;;17.60;14.63;;;22.90;99.90;;;;;;5033644;28;20214;-66
2021/04/19 11:28:14;;;;;;;19.63;17.10;;;22.90;99.90;;;;;;5033873;28;20203;-66
2021/04/19 11:30:39;;;;;;;23.13;19.13;;;22.90;99.90;;;;;;5032987;28;20191;-65
2021/04/19 11:33:14;;;;;;;19.83;16.50;;;22.30;99.90;;;;;;5033489;28;20183;-66
2021/04/19 11:35:48;;;;;;;18.98;15.10;;;21.70;99.90;;;;;;5033817;28;20216;-66
2021/04/19 11:38:16;;;;;;;21.10;17.80;;;20.50;99.90;;;;;;5032438;28;20250;-66
2021/04/19 11:40:45;;;;;;;19.77;16.85;;;20.00;99.90;;;;;;5033260;28;20214;-66
2021/04/19 11:43:29;;;;;;;18.90;16.98;;;19.70;99.90;;;;;;5032438;28;20743;-65
2021/04/19 11:46:09;;;;;;;18.63;16.38;;;19.60;99.90;;;;;;5033491;28;20175;-66
2021/04/19 11:48:37;;;;;;;16.42;14.82;;;20.20;99.90;;;;;;5033400;28;20636;-66
2021/04/19 11:51:11;;;;;;;17.35;15.55;;;20.50;99.90;;;;;;5033250;28;20739;-65
2021/04/19 11:53:39;;;;;;;17.35;15.48;;;20.80;99.90;;;;;;5033514;28;20798;-66
2021/04/19 11:56:07;;;;;;;18.42;15.43;;;20.30;99.90;;;;;;5033559;28;20260;-66
2021/04/19 11:58:44;;;;;;;16.63;12.95;;;20.40;99.90;;;;;;5033336;28;20175;-66
2021/04/19 12:01:12;;;;;;;13.93;12.38;;;20.70;99.90;;;;;;5033115;28;20203;-65
2021/04/19 12:03:38;;;;;;;17.38;15.30;;;20.90;99.90;;;;;;5033212;28;20191;-65
2021/04/19 12:06:08;;;;;;;18.77;16.77;;;21.40;99.90;;;;;;5032530;28;20640;-66
2021/04/19 12:08:35;;;;;;;17.52;14.82;;;22.10;99.90;;;;;;5032997;28;20188;-66
2021/04/19 12:11:01;;;;;;;15.25;12.93;;;22.50;99.90;;;;;;5032502;28;20759;-66
2021/04/19 12:13:27;;;;;;;17.52;15.57;;;23.00;99.90;;;;;;5033335;28;20557;-66
2021/04/19 12:15:53;;;;;;;18.33;15.77;;;23.10;99.90;;;;;;5033043;28;20180;-66
2021/04/19 12:18:23;;;;;;;17.08;14.30;;;23.70;99.90;;;;;;5032949;28;20207;-65
2021/04/19 12:20:50;;;;;;;18.55;15.65;;;24.00;99.90;;;;;;5032370;28;20633;-65
2021/04/19 12:23:16;;;;;;;17.38;15.27;;;23.90;99.90;;;;;;5033030;28;20168;-65
2021/04/19 12:25:42;;;;;;;20.63;15.70;;;23.90;99.90;;;;;;5032839;28;20168;-65
2021/04/19 12:28:08;;;;;;;18.77;15.43;;;24.20;99.90;;;;;;5032874;28;20298;-64
2021/04/19 12:30:34;;;;;;;20.67;15.48;;;23.60;99.90;;;;;;5032102;28;20290;-64
2021/04/19 12:33:00;;;;;;;16.88;14.88;;;23.00;99.90;;;;;;5031829;28;20645;-65
2021/04/19 12:35:26;;;;;;;19.15;13.93;;;22.70;99.90;;;;;;5032644;28;20262;-64
2021/04/19 12:37:52;;;;;;;16.50;14.90;;;22.60;99.90;;;;;;5032891;28;20183;-65
2021/04/19 12:40:19;;;;;;;20.23;15.93;;;22.50;99.90;;;;;;5031998;28;20214;-65
2021/04/19 12:42:47;;;;;;;22.35;17.10;;;22.30;99.90;;;;;;5031942;28;20254;-64
2021/04/19 12:45:13;;;;;;;21.13;17.25;;;21.50;99.90;;;;;;5032545;28;20180;-64
2021/04/19 12:47:39;;;;;;;18.33;16.40;;;21.00;99.90;;;;;;5032880;28;20198;-64
2021/04/19 12:50:05;;;;;;;21.23;17.20;;;20.70;99.90;;;;;;5032044;28;20609;-64
2021/04/19 12:52:31;;;;;;;21.88;17.02;;;20.50;99.90;;;;;;5032500;28;20246;-64